PILOTS ONLINE: 337    ATC ONLINE: 84

CYRL

Red Lake Airport

Location

IATA YRL
City Red Lake
Country  Canada
Latitude 51° 4' 0" N
Longitude 93° 47' 35" W
Elevation 1265 ft
Type Medium Airport

Map

Weather

METAR
2014/09/02 01:20
CYRL 020120Z 24005KT 160V250 12SM -TSRA FEW007 BKN014CB OVC040 14/12 A2963 RMK SF1CB6SC1 LTGIC VIA CYPL SLP040 DENSITY ALT 1700FT
TAF
2014/09/02 00:00
TAF 
      AMD CYRL 020059Z 0200/0202 VRB03KT P6SM FEW008 BKN030 
      TEMPO 0200/0202 VRB15G25KT 2SM TSRA BR BKN008 OVC030CB 
      RMK NXT FCST WILL BE ISSUED AT 021045Z

Runways

08/26 5000 ft / 150 ft

Outbound flights

Callsign Flying to Pilot ATD/STD ETA Aircraft

Inbound flights

Callsign Flying from Pilot ATD ETA Aircraft